首页
METAR-TAF:

METAR-TAF

机场 :

Cranwell, 英格兰

纬度: 53-02N, 经度: 000-30W, 海拔: 67米

当前天气观测

该预报发布于1小时和29分钟前的18:50 UTC
风速23节,风向西南
温度 10°C
湿度 76%
气压 1013 hPa
能见度10公里或以上

METAR: EGYD 211850Z AUTO 23023KT 9999 // OVC026/// 10/06 Q1013

时间: 20:19 (20:19 UTC)

预报

该预报发布于9小时和30分钟前的10:49 UTC
预报有效从21日的 12点(UTC)到 21日的 18点(UTC)
风速20节,风向西南,有时为30节阵风
能见度10公里或以上
散云层高于4000英尺
短暂存在
从 21日的 12点(UTC)到 21日的 18点(UTC)
散云层高于1800英尺
成为
从 21日的 12点(UTC)到 21日的 14点(UTC)
风速30节,风向西南,有时为40节阵风

TAF: EGYD 211049Z 2112/2118 22020G30KT 9999 SCT040 TEMPO 2112/2118 SCT018 BECMG 2112/2114 23030G40KT

超过4000个机场的气象观测和天气预报(METAR&TAF报告)。

可查询的气象台以黄色和红色小点在地图上表示。

将鼠标移到小点上方,可查看气象台名称。

然后点击查看天气观测和预报。

如需切换地图:点击带黑十字的绿色按钮放大地图;点击带横线的绿色按钮缩小地图;或者点击绿色箭头查看邻近地区的地图。


METAR-TAF: